sensor_id;sensor_type;location;lat;lon;timestamp;P1;durP1;ratioP1;P2;durP2;ratioP2
85791;SDS011;76235;42.028;23.096;2024-02-23T00:02:04;19.23;;;10.13;;
85791;SDS011;76235;42.028;23.096;2024-02-23T00:04:30;17.95;;;8.50;;
85791;SDS011;76235;42.028;23.096;2024-02-23T00:06:56;13.85;;;7.05;;
85791;SDS011;76235;42.028;23.096;2024-02-23T00:09:22;16.60;;;8.90;;
85791;SDS011;76235;42.028;23.096;2024-02-23T00:11:49;18.98;;;8.00;;
85791;SDS011;76235;42.028;23.096;2024-02-23T00:14:15;16.92;;;8.40;;
85791;SDS011;76235;42.028;23.096;2024-02-23T00:16:43;17.60;;;8.27;;
85791;SDS011;76235;42.028;23.096;2024-02-23T00:19:09;14.27;;;6.85;;
85791;SDS011;76235;42.028;23.096;2024-02-23T00:21:36;16.48;;;8.30;;
85791;SDS011;76235;42.028;23.096;2024-02-23T00:24:02;18.33;;;9.32;;
85791;SDS011;76235;42.028;23.096;2024-02-23T00:26:28;16.25;;;7.75;;
85791;SDS011;76235;42.028;23.096;2024-02-23T00:28:54;15.10;;;7.18;;
85791;SDS011;76235;42.028;23.096;2024-02-23T00:31:21;13.60;;;7.07;;
85791;SDS011;76235;42.028;23.096;2024-02-23T00:33:47;14.07;;;7.10;;
85791;SDS011;76235;42.028;23.096;2024-02-23T00:36:13;15.23;;;7.70;;
85791;SDS011;76235;42.028;23.096;2024-02-23T00:38:39;15.50;;;8.43;;
85791;SDS011;76235;42.028;23.096;2024-02-23T00:41:05;15.15;;;7.10;;
85791;SDS011;76235;42.028;23.096;2024-02-23T00:43:40;14.52;;;6.55;;
85791;SDS011;76235;42.028;23.096;2024-02-23T00:46:07;13.40;;;6.03;;
85791;SDS011;76235;42.028;23.096;2024-02-23T00:48:33;13.00;;;6.60;;
85791;SDS011;76235;42.028;23.096;2024-02-23T00:50:59;12.00;;;5.93;;
85791;SDS011;76235;42.028;23.096;2024-02-23T00:53:25;14.35;;;6.30;;
85791;SDS011;76235;42.028;23.096;2024-02-23T00:55:51;12.07;;;6.28;;
85791;SDS011;76235;42.028;23.096;2024-02-23T00:58:17;12.88;;;6.75;;
85791;SDS011;76235;42.028;23.096;2024-02-23T01:00:43;12.93;;;6.50;;
85791;SDS011;76235;42.028;23.096;2024-02-23T01:03:09;12.10;;;5.55;;
85791;SDS011;76235;42.028;23.096;2024-02-23T01:05:35;13.77;;;5.95;;
85791;SDS011;76235;42.028;23.096;2024-02-23T01:08:02;11.13;;;5.93;;
85791;SDS011;76235;42.028;23.096;2024-02-23T01:10:28;12.40;;;6.30;;
85791;SDS011;76235;42.028;23.096;2024-02-23T01:12:54;12.93;;;5.90;;
85791;SDS011;76235;42.028;23.096;2024-02-23T01:15:20;12.98;;;5.50;;
85791;SDS011;76235;42.028;23.096;2024-02-23T01:17:46;14.55;;;6.47;;
85791;SDS011;76235;42.028;23.096;2024-02-23T01:20:12;14.25;;;7.00;;
85791;SDS011;76235;42.028;23.096;2024-02-23T01:22:38;10.73;;;4.30;;
85791;SDS011;76235;42.028;23.096;2024-02-23T01:25:05;13.20;;;6.82;;
85791;SDS011;76235;42.028;23.096;2024-02-23T01:27:31;13.23;;;6.50;;
85791;SDS011;76235;42.028;23.096;2024-02-23T01:29:57;12.07;;;5.50;;
85791;SDS011;76235;42.028;23.096;2024-02-23T01:32:24;11.93;;;4.88;;
85791;SDS011;76235;42.028;23.096;2024-02-23T01:34:50;13.25;;;6.03;;
85791;SDS011;76235;42.028;23.096;2024-02-23T01:37:16;16.17;;;7.28;;
85791;SDS011;76235;42.028;23.096;2024-02-23T01:39:42;13.90;;;6.65;;
85791;SDS011;76235;42.028;23.096;2024-02-23T01:42:08;17.98;;;8.15;;
85791;SDS011;76235;42.028;23.096;2024-02-23T01:44:34;13.82;;;6.50;;
85791;SDS011;76235;42.028;23.096;2024-02-23T01:47:00;14.85;;;6.50;;
85791;SDS011;76235;42.028;23.096;2024-02-23T01:49:26;19.63;;;9.60;;
85791;SDS011;76235;42.028;23.096;2024-02-23T01:51:57;15.25;;;7.95;;
85791;SDS011;76235;42.028;23.096;2024-02-23T01:54:24;17.73;;;8.65;;
85791;SDS011;76235;42.028;23.096;2024-02-23T01:56:50;15.80;;;8.95;;
85791;SDS011;76235;42.028;23.096;2024-02-23T01:59:16;16.30;;;7.93;;
85791;SDS011;76235;42.028;23.096;2024-02-23T02:01:43;17.30;;;8.00;;
85791;SDS011;76235;42.028;23.096;2024-02-23T02:04:09;16.20;;;7.47;;
85791;SDS011;76235;42.028;23.096;2024-02-23T02:06:35;16.75;;;8.70;;
85791;SDS011;76235;42.028;23.096;2024-02-23T02:09:01;18.58;;;8.63;;
85791;SDS011;76235;42.028;23.096;2024-02-23T02:11:28;16.45;;;8.05;;
85791;SDS011;76235;42.028;23.096;2024-02-23T02:13:54;17.65;;;8.25;;
85791;SDS011;76235;42.028;23.096;2024-02-23T02:16:20;15.25;;;7.28;;
85791;SDS011;76235;42.028;23.096;2024-02-23T02:18:46;17.55;;;8.45;;
85791;SDS011;76235;42.028;23.096;2024-02-23T02:21:12;18.48;;;8.45;;
85791;SDS011;76235;42.028;23.096;2024-02-23T02:23:38;16.48;;;8.10;;
85791;SDS011;76235;42.028;23.096;2024-02-23T02:26:04;16.63;;;7.72;;
85791;SDS011;76235;42.028;23.096;2024-02-23T02:28:30;17.88;;;8.32;;
85791;SDS011;76235;42.028;23.096;2024-02-23T02:30:56;15.50;;;7.53;;
85791;SDS011;76235;42.028;23.096;2024-02-23T02:33:22;13.50;;;6.43;;
85791;SDS011;76235;42.028;23.096;2024-02-23T02:35:48;13.80;;;7.38;;
85791;SDS011;76235;42.028;23.096;2024-02-23T02:38:15;16.38;;;7.55;;
85791;SDS011;76235;42.028;23.096;2024-02-23T02:40:41;17.30;;;8.23;;
85791;SDS011;76235;42.028;23.096;2024-02-23T02:43:07;14.88;;;7.70;;
85791;SDS011;76235;42.028;23.096;2024-02-23T02:45:33;16.73;;;7.63;;
85791;SDS011;76235;42.028;23.096;2024-02-23T02:48:00;14.93;;;7.60;;
85791;SDS011;76235;42.028;23.096;2024-02-23T02:50:29;16.23;;;7.32;;
85791;SDS011;76235;42.028;23.096;2024-02-23T02:52:55;13.00;;;6.13;;
85791;SDS011;76235;42.028;23.096;2024-02-23T02:55:21;12.55;;;7.35;;
85791;SDS011;76235;42.028;23.096;2024-02-23T02:57:47;15.05;;;7.20;;
85791;SDS011;76235;42.028;23.096;2024-02-23T03:00:13;15.18;;;7.40;;
85791;SDS011;76235;42.028;23.096;2024-02-23T03:02:39;14.90;;;7.57;;
85791;SDS011;76235;42.028;23.096;2024-02-23T03:05:05;18.55;;;8.70;;
85791;SDS011;76235;42.028;23.096;2024-02-23T03:07:31;14.13;;;7.07;;
85791;SDS011;76235;42.028;23.096;2024-02-23T03:09:57;13.65;;;7.13;;
85791;SDS011;76235;42.028;23.096;2024-02-23T03:12:23;12.85;;;6.88;;
85791;SDS011;76235;42.028;23.096;2024-02-23T03:14:49;13.60;;;6.93;;
85791;SDS011;76235;42.028;23.096;2024-02-23T03:17:15;12.52;;;6.32;;
85791;SDS011;76235;42.028;23.096;2024-02-23T03:19:41;13.63;;;6.63;;
85791;SDS011;76235;42.028;23.096;2024-02-23T03:22:07;14.02;;;6.60;;
85791;SDS011;76235;42.028;23.096;2024-02-23T03:24:34;14.23;;;6.63;;
85791;SDS011;76235;42.028;23.096;2024-02-23T03:27:00;12.63;;;6.10;;
85791;SDS011;76235;42.028;23.096;2024-02-23T03:29:26;15.27;;;6.88;;
85791;SDS011;76235;42.028;23.096;2024-02-23T03:31:55;16.02;;;7.25;;
85791;SDS011;76235;42.028;23.096;2024-02-23T03:34:21;13.98;;;7.28;;
85791;SDS011;76235;42.028;23.096;2024-02-23T03:36:47;12.30;;;5.50;;
85791;SDS011;76235;42.028;23.096;2024-02-23T03:39:14;11.63;;;6.05;;
85791;SDS011;76235;42.028;23.096;2024-02-23T03:41:40;10.80;;;5.47;;
85791;SDS011;76235;42.028;23.096;2024-02-23T03:44:06;12.88;;;5.82;;
85791;SDS011;76235;42.028;23.096;2024-02-23T03:46:33;11.18;;;5.72;;
85791;SDS011;76235;42.028;23.096;2024-02-23T03:48:59;13.65;;;7.35;;
85791;SDS011;76235;42.028;23.096;2024-02-23T03:51:26;12.82;;;6.18;;
85791;SDS011;76235;42.028;23.096;2024-02-23T03:53:52;12.57;;;5.53;;
85791;SDS011;76235;42.028;23.096;2024-02-23T03:56:18;13.20;;;5.88;;
85791;SDS011;76235;42.028;23.096;2024-02-23T03:58:44;11.93;;;5.60;;
85791;SDS011;76235;42.028;23.096;2024-02-23T04:01:10;12.50;;;6.18;;
85791;SDS011;76235;42.028;23.096;2024-02-23T04:03:36;11.98;;;5.80;;
85791;SDS011;76235;42.028;23.096;2024-02-23T04:06:02;10.13;;;4.68;;
85791;SDS011;76235;42.028;23.096;2024-02-23T04:08:28;13.95;;;6.55;;
85791;SDS011;76235;42.028;23.096;2024-02-23T04:10:54;11.68;;;5.30;;
85791;SDS011;76235;42.028;23.096;2024-02-23T04:13:20;11.57;;;5.50;;
85791;SDS011;76235;42.028;23.096;2024-02-23T04:15:46;13.25;;;6.18;;
85791;SDS011;76235;42.028;23.096;2024-02-23T04:18:12;12.43;;;5.78;;
85791;SDS011;76235;42.028;23.096;2024-02-23T04:20:38;11.05;;;4.90;;
85791;SDS011;76235;42.028;23.096;2024-02-23T04:23:04;11.27;;;5.60;;
85791;SDS011;76235;42.028;23.096;2024-02-23T04:25:30;12.43;;;6.60;;
85791;SDS011;76235;42.028;23.096;2024-02-23T04:27:56;12.75;;;6.63;;
85791;SDS011;76235;42.028;23.096;2024-02-23T04:30:22;12.52;;;5.53;;
85791;SDS011;76235;42.028;23.096;2024-02-23T04:32:48;12.90;;;5.97;;
85791;SDS011;76235;42.028;23.096;2024-02-23T04:35:14;12.00;;;5.47;;
85791;SDS011;76235;42.028;23.096;2024-02-23T04:37:43;13.05;;;5.03;;
85791;SDS011;76235;42.028;23.096;2024-02-23T04:40:10;11.85;;;5.28;;
85791;SDS011;76235;42.028;23.096;2024-02-23T04:42:36;10.32;;;4.75;;
85791;SDS011;76235;42.028;23.096;2024-02-23T04:45:03;12.13;;;4.72;;
85791;SDS011;76235;42.028;23.096;2024-02-23T04:47:30;10.63;;;4.63;;
85791;SDS011;76235;42.028;23.096;2024-02-23T04:49:56;12.35;;;4.90;;
85791;SDS011;76235;42.028;23.096;2024-02-23T04:52:22;10.02;;;5.10;;
85791;SDS011;76235;42.028;23.096;2024-02-23T04:54:48;12.52;;;5.45;;
85791;SDS011;76235;42.028;23.096;2024-02-23T04:57:14;10.95;;;4.82;;
85791;SDS011;76235;42.028;23.096;2024-02-23T04:59:40;11.35;;;4.82;;
85791;SDS011;76235;42.028;23.096;2024-02-23T05:02:06;9.70;;;5.28;;
85791;SDS011;76235;42.028;23.096;2024-02-23T05:04:32;13.25;;;4.95;;
85791;SDS011;76235;42.028;23.096;2024-02-23T05:07:02;11.43;;;4.50;;
85791;SDS011;76235;42.028;23.096;2024-02-23T05:09:28;10.43;;;5.40;;
85791;SDS011;76235;42.028;23.096;2024-02-23T05:11:54;11.70;;;5.30;;
85791;SDS011;76235;42.028;23.096;2024-02-23T05:14:20;14.40;;;5.15;;
85791;SDS011;76235;42.028;23.096;2024-02-23T05:16:46;10.52;;;4.53;;
85791;SDS011;76235;42.028;23.096;2024-02-23T05:19:12;13.13;;;5.60;;
85791;SDS011;76235;42.028;23.096;2024-02-23T05:21:38;12.35;;;5.00;;
85791;SDS011;76235;42.028;23.096;2024-02-23T05:24:04;12.00;;;4.63;;
85791;SDS011;76235;42.028;23.096;2024-02-23T05:26:31;11.20;;;4.88;;
85791;SDS011;76235;42.028;23.096;2024-02-23T05:28:57;11.93;;;5.78;;
85791;SDS011;76235;42.028;23.096;2024-02-23T05:32:05;10.55;;;5.05;;
85791;SDS011;76235;42.028;23.096;2024-02-23T05:34:12;13.27;;;5.15;;
85791;SDS011;76235;42.028;23.096;2024-02-23T05:36:38;11.82;;;4.97;;
85791;SDS011;76235;42.028;23.096;2024-02-23T05:39:04;11.90;;;5.80;;
85791;SDS011;76235;42.028;23.096;2024-02-23T05:41:32;9.27;;;3.83;;
85791;SDS011;76235;42.028;23.096;2024-02-23T05:43:58;11.05;;;5.03;;
85791;SDS011;76235;42.028;23.096;2024-02-23T05:48:11;11.93;;;4.72;;
85791;SDS011;76235;42.028;23.096;2024-02-23T05:50:37;10.07;;;5.28;;
85791;SDS011;76235;42.028;23.096;2024-02-23T05:53:03;10.15;;;4.75;;
85791;SDS011;76235;42.028;23.096;2024-02-23T05:55:29;10.45;;;5.43;;
85791;SDS011;76235;42.028;23.096;2024-02-23T05:57:55;9.48;;;4.45;;
85791;SDS011;76235;42.028;23.096;2024-02-23T06:00:21;10.55;;;4.38;;
85791;SDS011;76235;42.028;23.096;2024-02-23T06:02:47;9.80;;;4.30;;
85791;SDS011;76235;42.028;23.096;2024-02-23T06:05:14;8.80;;;4.32;;
85791;SDS011;76235;42.028;23.096;2024-02-23T06:07:40;8.88;;;4.38;;
85791;SDS011;76235;42.028;23.096;2024-02-23T06:10:06;9.73;;;4.55;;
85791;SDS011;76235;42.028;23.096;2024-02-23T06:12:33;11.27;;;4.63;;
85791;SDS011;76235;42.028;23.096;2024-02-23T06:14:59;10.07;;;5.30;;
85791;SDS011;76235;42.028;23.096;2024-02-23T06:17:25;10.32;;;4.68;;
85791;SDS011;76235;42.028;23.096;2024-02-23T06:19:51;11.25;;;4.28;;
85791;SDS011;76235;42.028;23.096;2024-02-23T06:22:18;9.85;;;4.80;;
85791;SDS011;76235;42.028;23.096;2024-02-23T06:24:47;13.23;;;5.03;;
85791;SDS011;76235;42.028;23.096;2024-02-23T06:27:13;11.52;;;4.82;;
85791;SDS011;76235;42.028;23.096;2024-02-23T06:29:39;9.68;;;4.60;;
85791;SDS011;76235;42.028;23.096;2024-02-23T06:32:06;10.50;;;5.07;;
85791;SDS011;76235;42.028;23.096;2024-02-23T06:34:32;9.20;;;4.28;;
85791;SDS011;76235;42.028;23.096;2024-02-23T06:36:58;11.13;;;4.85;;
85791;SDS011;76235;42.028;23.096;2024-02-23T06:39:24;9.32;;;3.97;;
85791;SDS011;76235;42.028;23.096;2024-02-23T06:41:51;9.13;;;3.95;;
85791;SDS011;76235;42.028;23.096;2024-02-23T06:44:17;10.63;;;4.53;;
85791;SDS011;76235;42.028;23.096;2024-02-23T06:46:43;10.20;;;5.10;;
85791;SDS011;76235;42.028;23.096;2024-02-23T06:49:09;12.85;;;4.55;;
85791;SDS011;76235;42.028;23.096;2024-02-23T06:51:35;11.60;;;4.40;;
85791;SDS011;76235;42.028;23.096;2024-02-23T06:54:03;17.67;;;13.40;;
85791;SDS011;76235;42.028;23.096;2024-02-23T06:56:29;11.95;;;6.10;;
85791;SDS011;76235;42.028;23.096;2024-02-23T06:58:55;12.10;;;6.75;;
85791;SDS011;76235;42.028;23.096;2024-02-23T07:01:21;11.38;;;5.03;;
85791;SDS011;76235;42.028;23.096;2024-02-23T07:03:47;17.38;;;7.75;;
85791;SDS011;76235;42.028;23.096;2024-02-23T07:06:15;21.92;;;11.50;;
85791;SDS011;76235;42.028;23.096;2024-02-23T07:08:43;19.27;;;10.15;;
85791;SDS011;76235;42.028;23.096;2024-02-23T07:11:09;20.38;;;11.90;;
85791;SDS011;76235;42.028;23.096;2024-02-23T07:13:35;24.95;;;12.43;;
85791;SDS011;76235;42.028;23.096;2024-02-23T07:16:02;24.70;;;12.43;;
85791;SDS011;76235;42.028;23.096;2024-02-23T07:18:28;21.95;;;12.00;;
85791;SDS011;76235;42.028;23.096;2024-02-23T07:20:54;20.10;;;10.82;;
85791;SDS011;76235;42.028;23.096;2024-02-23T07:23:20;21.38;;;11.95;;
85791;SDS011;76235;42.028;23.096;2024-02-23T07:25:47;21.50;;;12.35;;
85791;SDS011;76235;42.028;23.096;2024-02-23T07:28:15;22.55;;;12.60;;
85791;SDS011;76235;42.028;23.096;2024-02-23T07:30:44;22.40;;;11.18;;
85791;SDS011;76235;42.028;23.096;2024-02-23T07:33:11;20.70;;;11.15;;
85791;SDS011;76235;42.028;23.096;2024-02-23T07:35:37;18.27;;;10.82;;
85791;SDS011;76235;42.028;23.096;2024-02-23T07:38:03;19.65;;;11.15;;
85791;SDS011;76235;42.028;23.096;2024-02-23T07:40:29;18.90;;;10.68;;
85791;SDS011;76235;42.028;23.096;2024-02-23T07:42:57;19.10;;;9.82;;
85791;SDS011;76235;42.028;23.096;2024-02-23T07:45:23;18.20;;;8.77;;
85791;SDS011;76235;42.028;23.096;2024-02-23T07:47:49;17.92;;;9.55;;
85791;SDS011;76235;42.028;23.096;2024-02-23T07:50:15;15.43;;;8.75;;
85791;SDS011;76235;42.028;23.096;2024-02-23T07:52:43;25.15;;;12.20;;
85791;SDS011;76235;42.028;23.096;2024-02-23T07:55:09;17.73;;;8.60;;
85791;SDS011;76235;42.028;23.096;2024-02-23T07:57:35;12.73;;;6.65;;
85791;SDS011;76235;42.028;23.096;2024-02-23T08:00:03;13.88;;;7.72;;
85791;SDS011;76235;42.028;23.096;2024-02-23T08:02:29;14.48;;;6.82;;
85791;SDS011;76235;42.028;23.096;2024-02-23T08:04:55;13.30;;;7.72;;
85791;SDS011;76235;42.028;23.096;2024-02-23T08:07:22;14.98;;;7.80;;
85791;SDS011;76235;42.028;23.096;2024-02-23T08:09:48;11.45;;;5.85;;
85791;SDS011;76235;42.028;23.096;2024-02-23T08:12:14;13.43;;;5.88;;
85791;SDS011;76235;42.028;23.096;2024-02-23T08:14:41;11.25;;;6.05;;
85791;SDS011;76235;42.028;23.096;2024-02-23T08:17:08;11.00;;;5.60;;
85791;SDS011;76235;42.028;23.096;2024-02-23T08:19:35;10.10;;;5.28;;
85791;SDS011;76235;42.028;23.096;2024-02-23T08:22:01;12.40;;;6.53;;
85791;SDS011;76235;42.028;23.096;2024-02-23T08:24:27;10.48;;;4.85;;
85791;SDS011;76235;42.028;23.096;2024-02-23T08:26:53;10.82;;;6.00;;
85791;SDS011;76235;42.028;23.096;2024-02-23T08:29:19;10.75;;;6.63;;
85791;SDS011;76235;42.028;23.096;2024-02-23T08:31:45;12.13;;;6.60;;
85791;SDS011;76235;42.028;23.096;2024-02-23T08:34:11;11.57;;;6.72;;
85791;SDS011;76235;42.028;23.096;2024-02-23T08:36:37;9.40;;;5.93;;
85791;SDS011;76235;42.028;23.096;2024-02-23T08:39:03;9.25;;;5.80;;
85791;SDS011;76235;42.028;23.096;2024-02-23T08:41:29;10.02;;;5.97;;
85791;SDS011;76235;42.028;23.096;2024-02-23T08:43:55;11.50;;;5.65;;
85791;SDS011;76235;42.028;23.096;2024-02-23T08:46:21;9.43;;;5.10;;
85791;SDS011;76235;42.028;23.096;2024-02-23T08:48:47;9.10;;;5.53;;
85791;SDS011;76235;42.028;23.096;2024-02-23T08:51:14;10.07;;;5.95;;
85791;SDS011;76235;42.028;23.096;2024-02-23T08:53:40;8.63;;;5.20;;
85791;SDS011;76235;42.028;23.096;2024-02-23T08:56:06;11.18;;;5.78;;
85791;SDS011;76235;42.028;23.096;2024-02-23T08:58:33;8.13;;;4.50;;
85791;SDS011;76235;42.028;23.096;2024-02-23T09:00:59;12.18;;;5.30;;
85791;SDS011;76235;42.028;23.096;2024-02-23T09:03:25;8.60;;;3.65;;
85791;SDS011;76235;42.028;23.096;2024-02-23T09:05:51;9.20;;;5.53;;
85791;SDS011;76235;42.028;23.096;2024-02-23T09:08:17;9.00;;;4.93;;
85791;SDS011;76235;42.028;23.096;2024-02-23T09:10:43;9.13;;;5.10;;
85791;SDS011;76235;42.028;23.096;2024-02-23T09:13:10;8.95;;;4.60;;
85791;SDS011;76235;42.028;23.096;2024-02-23T09:18:02;7.63;;;3.65;;
85791;SDS011;76235;42.028;23.096;2024-02-23T09:20:28;9.05;;;4.38;;
85791;SDS011;76235;42.028;23.096;2024-02-23T09:22:54;8.27;;;3.72;;
85791;SDS011;76235;42.028;23.096;2024-02-23T09:25:20;10.48;;;4.45;;
85791;SDS011;76235;42.028;23.096;2024-02-23T09:27:46;12.00;;;4.38;;
85791;SDS011;76235;42.028;23.096;2024-02-23T09:30:12;12.63;;;5.47;;
85791;SDS011;76235;42.028;23.096;2024-02-23T09:32:39;9.30;;;4.22;;
85791;SDS011;76235;42.028;23.096;2024-02-23T09:35:05;8.65;;;4.40;;
85791;SDS011;76235;42.028;23.096;2024-02-23T09:39:57;8.68;;;3.85;;
85791;SDS011;76235;42.028;23.096;2024-02-23T09:42:23;8.20;;;3.47;;
85791;SDS011;76235;42.028;23.096;2024-02-23T09:44:54;6.57;;;3.20;;
85791;SDS011;76235;42.028;23.096;2024-02-23T09:47:24;8.00;;;3.25;;
85791;SDS011;76235;42.028;23.096;2024-02-23T09:49:50;6.07;;;2.90;;
85791;SDS011;76235;42.028;23.096;2024-02-23T09:54:43;8.57;;;4.00;;
85791;SDS011;76235;42.028;23.096;2024-02-23T09:57:09;11.25;;;4.25;;
85791;SDS011;76235;42.028;23.096;2024-02-23T09:59:35;7.82;;;4.65;;
85791;SDS011;76235;42.028;23.096;2024-02-23T10:02:02;8.68;;;4.10;;
85791;SDS011;76235;42.028;23.096;2024-02-23T10:04:33;8.25;;;3.45;;
85791;SDS011;76235;42.028;23.096;2024-02-23T10:06:59;5.75;;;2.55;;
85791;SDS011;76235;42.028;23.096;2024-02-23T10:09:25;8.68;;;3.35;;
85791;SDS011;76235;42.028;23.096;2024-02-23T10:11:55;8.57;;;4.50;;
85791;SDS011;76235;42.028;23.096;2024-02-23T10:14:21;6.93;;;3.80;;
85791;SDS011;76235;42.028;23.096;2024-02-23T10:16:47;6.93;;;3.22;;
85791;SDS011;76235;42.028;23.096;2024-02-23T10:19:19;7.80;;;3.78;;
85791;SDS011;76235;42.028;23.096;2024-02-23T10:21:45;6.10;;;2.70;;
85791;SDS011;76235;42.028;23.096;2024-02-23T10:24:12;8.38;;;3.65;;
85791;SDS011;76235;42.028;23.096;2024-02-23T10:26:38;5.80;;;3.00;;
85791;SDS011;76235;42.028;23.096;2024-02-23T10:29:04;7.15;;;3.85;;
85791;SDS011;76235;42.028;23.096;2024-02-23T10:31:34;7.50;;;4.13;;
85791;SDS011;76235;42.028;23.096;2024-02-23T10:34:07;4.97;;;1.92;;
85791;SDS011;76235;42.028;23.096;2024-02-23T10:36:40;5.90;;;2.38;;
85791;SDS011;76235;42.028;23.096;2024-02-23T10:39:07;7.80;;;3.75;;
85791;SDS011;76235;42.028;23.096;2024-02-23T10:41:37;7.63;;;3.22;;
85791;SDS011;76235;42.028;23.096;2024-02-23T10:44:05;7.15;;;3.30;;
85791;SDS011;76235;42.028;23.096;2024-02-23T10:46:32;5.75;;;2.42;;
85791;SDS011;76235;42.028;23.096;2024-02-23T10:48:58;6.20;;;3.38;;
85791;SDS011;76235;42.028;23.096;2024-02-23T10:51:26;7.43;;;3.38;;
85791;SDS011;76235;42.028;23.096;2024-02-23T10:53:52;6.18;;;3.35;;
85791;SDS011;76235;42.028;23.096;2024-02-23T10:56:19;6.60;;;3.53;;
85791;SDS011;76235;42.028;23.096;2024-02-23T10:58:47;7.30;;;5.40;;
85791;SDS011;76235;42.028;23.096;2024-02-23T11:01:13;6.30;;;3.60;;
85791;SDS011;76235;42.028;23.096;2024-02-23T11:03:41;7.00;;;3.22;;
85791;SDS011;76235;42.028;23.096;2024-02-23T11:06:08;6.68;;;3.42;;
85791;SDS011;76235;42.028;23.096;2024-02-23T11:08:34;6.38;;;3.45;;
85791;SDS011;76235;42.028;23.096;2024-02-23T11:11:09;5.50;;;2.72;;
85791;SDS011;76235;42.028;23.096;2024-02-23T11:13:36;5.40;;;2.10;;
85791;SDS011;76235;42.028;23.096;2024-02-23T11:16:03;5.90;;;3.22;;
85791;SDS011;76235;42.028;23.096;2024-02-23T11:20:55;5.85;;;2.92;;
85791;SDS011;76235;42.028;23.096;2024-02-23T11:23:22;6.05;;;2.10;;
85791;SDS011;76235;42.028;23.096;2024-02-23T11:28:30;6.22;;;2.00;;
85791;SDS011;76235;42.028;23.096;2024-02-23T11:30:57;6.40;;;2.35;;
85791;SDS011;76235;42.028;23.096;2024-02-23T11:33:27;6.85;;;3.03;;
85791;SDS011;76235;42.028;23.096;2024-02-23T11:38:20;5.93;;;2.42;;
85791;SDS011;76235;42.028;23.096;2024-02-23T11:40:47;5.80;;;2.42;;
85791;SDS011;76235;42.028;23.096;2024-02-23T11:43:14;6.55;;;2.83;;
85791;SDS011;76235;42.028;23.096;2024-02-23T11:45:40;6.47;;;3.20;;
85791;SDS011;76235;42.028;23.096;2024-02-23T11:48:07;5.65;;;2.55;;
85791;SDS011;76235;42.028;23.096;2024-02-23T11:50:33;6.00;;;2.38;;
85791;SDS011;76235;42.028;23.096;2024-02-23T11:52:59;6.30;;;2.95;;
85791;SDS011;76235;42.028;23.096;2024-02-23T11:55:26;6.28;;;2.03;;
85791;SDS011;76235;42.028;23.096;2024-02-23T11:57:52;7.40;;;2.72;;
85791;SDS011;76235;42.028;23.096;2024-02-23T12:00:18;7.03;;;2.83;;
85791;SDS011;76235;42.028;23.096;2024-02-23T12:02:44;6.72;;;2.03;;
85791;SDS011;76235;42.028;23.096;2024-02-23T12:05:13;6.88;;;2.30;;
85791;SDS011;76235;42.028;23.096;2024-02-23T12:07:40;6.22;;;2.47;;
85791;SDS011;76235;42.028;23.096;2024-02-23T12:10:07;5.80;;;2.08;;
85791;SDS011;76235;42.028;23.096;2024-02-23T12:12:33;6.85;;;2.22;;
85791;SDS011;76235;42.028;23.096;2024-02-23T12:14:59;6.00;;;2.33;;
85791;SDS011;76235;42.028;23.096;2024-02-23T12:17:25;6.35;;;2.53;;
85791;SDS011;76235;42.028;23.096;2024-02-23T12:20:01;7.45;;;2.83;;
85791;SDS011;76235;42.028;23.096;2024-02-23T12:22:28;8.00;;;2.72;;
85791;SDS011;76235;42.028;23.096;2024-02-23T12:24:57;5.95;;;2.33;;
85791;SDS011;76235;42.028;23.096;2024-02-23T12:27:23;5.78;;;1.95;;
85791;SDS011;76235;42.028;23.096;2024-02-23T12:29:53;6.45;;;2.70;;
85791;SDS011;76235;42.028;23.096;2024-02-23T12:32:20;6.03;;;2.28;;
85791;SDS011;76235;42.028;23.096;2024-02-23T12:34:47;5.55;;;2.33;;
85791;SDS011;76235;42.028;23.096;2024-02-23T12:37:16;8.38;;;2.60;;
85791;SDS011;76235;42.028;23.096;2024-02-23T12:39:43;5.47;;;1.98;;
85791;SDS011;76235;42.028;23.096;2024-02-23T12:42:09;7.38;;;3.10;;
85791;SDS011;76235;42.028;23.096;2024-02-23T12:44:35;6.40;;;1.88;;
85791;SDS011;76235;42.028;23.096;2024-02-23T12:47:01;7.65;;;2.08;;
85791;SDS011;76235;42.028;23.096;2024-02-23T12:51:54;6.65;;;2.92;;
85791;SDS011;76235;42.028;23.096;2024-02-23T12:54:20;6.15;;;2.80;;
85791;SDS011;76235;42.028;23.096;2024-02-23T12:56:46;5.38;;;2.03;;
85791;SDS011;76235;42.028;23.096;2024-02-23T12:59:12;5.70;;;2.38;;
85791;SDS011;76235;42.028;23.096;2024-02-23T13:01:38;6.60;;;2.90;;
85791;SDS011;76235;42.028;23.096;2024-02-23T13:04:04;6.43;;;3.05;;
85791;SDS011;76235;42.028;23.096;2024-02-23T13:06:37;9.32;;;2.60;;
85791;SDS011;76235;42.028;23.096;2024-02-23T13:09:04;8.07;;;2.83;;
85791;SDS011;76235;42.028;23.096;2024-02-23T13:11:30;6.03;;;2.72;;
85791;SDS011;76235;42.028;23.096;2024-02-23T13:13:59;7.20;;;2.10;;
85791;SDS011;76235;42.028;23.096;2024-02-23T13:16:25;6.05;;;1.90;;
85791;SDS011;76235;42.028;23.096;2024-02-23T13:18:51;6.70;;;2.50;;
85791;SDS011;76235;42.028;23.096;2024-02-23T13:21:17;6.35;;;1.88;;
85791;SDS011;76235;42.028;23.096;2024-02-23T13:23:43;6.07;;;2.53;;
85791;SDS011;76235;42.028;23.096;2024-02-23T13:26:09;6.50;;;2.55;;
85791;SDS011;76235;42.028;23.096;2024-02-23T13:28:36;7.18;;;2.55;;
85791;SDS011;76235;42.028;23.096;2024-02-23T13:31:02;6.45;;;2.35;;
85791;SDS011;76235;42.028;23.096;2024-02-23T13:33:28;6.93;;;2.40;;
85791;SDS011;76235;42.028;23.096;2024-02-23T13:35:54;6.18;;;2.08;;
85791;SDS011;76235;42.028;23.096;2024-02-23T13:38:20;5.65;;;1.98;;
85791;SDS011;76235;42.028;23.096;2024-02-23T13:40:47;7.32;;;2.40;;
85791;SDS011;76235;42.028;23.096;2024-02-23T13:43:13;6.40;;;2.45;;
85791;SDS011;76235;42.028;23.096;2024-02-23T13:45:52;5.53;;;2.50;;
85791;SDS011;76235;42.028;23.096;2024-02-23T13:48:18;7.72;;;2.42;;
85791;SDS011;76235;42.028;23.096;2024-02-23T13:50:48;6.45;;;3.20;;
85791;SDS011;76235;42.028;23.096;2024-02-23T13:53:14;6.32;;;2.60;;
85791;SDS011;76235;42.028;23.096;2024-02-23T13:55:40;6.40;;;2.53;;
85791;SDS011;76235;42.028;23.096;2024-02-23T13:58:09;6.68;;;2.83;;
85791;SDS011;76235;42.028;23.096;2024-02-23T14:00:37;8.70;;;3.17;;
85791;SDS011;76235;42.028;23.096;2024-02-23T14:03:03;6.05;;;2.55;;
85791;SDS011;76235;42.028;23.096;2024-02-23T14:05:29;9.38;;;3.30;;
85791;SDS011;76235;42.028;23.096;2024-02-23T14:07:55;6.88;;;3.08;;
85791;SDS011;76235;42.028;23.096;2024-02-23T14:10:21;6.95;;;3.25;;
85791;SDS011;76235;42.028;23.096;2024-02-23T14:12:48;6.22;;;2.60;;
85791;SDS011;76235;42.028;23.096;2024-02-23T14:15:15;6.70;;;2.97;;
85791;SDS011;76235;42.028;23.096;2024-02-23T14:17:42;8.88;;;3.70;;
85791;SDS011;76235;42.028;23.096;2024-02-23T14:20:08;6.95;;;3.20;;
85791;SDS011;76235;42.028;23.096;2024-02-23T14:22:34;7.13;;;3.55;;
85791;SDS011;76235;42.028;23.096;2024-02-23T14:25:00;6.35;;;2.65;;
85791;SDS011;76235;42.028;23.096;2024-02-23T14:27:26;8.68;;;4.15;;
85791;SDS011;76235;42.028;23.096;2024-02-23T14:29:53;8.30;;;3.92;;
85791;SDS011;76235;42.028;23.096;2024-02-23T14:32:19;8.35;;;2.83;;
85791;SDS011;76235;42.028;23.096;2024-02-23T14:34:46;8.38;;;3.58;;
85791;SDS011;76235;42.028;23.096;2024-02-23T14:37:12;9.25;;;4.07;;
85791;SDS011;76235;42.028;23.096;2024-02-23T14:39:38;6.68;;;2.92;;
85791;SDS011;76235;42.028;23.096;2024-02-23T14:42:04;7.97;;;3.45;;